x

Monterey - 27nm Wnw Of Monterey, Ca (46042) Wave Buoy

8:50pm - Wed 2nd Sep 2015 All times are PDT. -7 hours from GMT.

  • Sig Wave height 6.2ft
  • Swell Direction
  • Peak Period 11s
  • Average Period 7s
  • Wind
    16mph, 18mph gusts
  • Sea Temp 63°f
  • Air Temp 64°f
  • Sea Pressure 1013.4mb
  • Monterey - 27nm Wnw Of Monterey, Ca
  • Monterey - 27nm Wnw Of Monterey, Ca

More Historic Weather Station data

Upgrade to MSW Pro to gain access to the past 30 days of data for over 8000 Wavebouys and Weather Stations around the globe.

Join Pro

Comparision Forecast

View Surf forecast
   
Wed 09/02 8:50pm 6ft 11s 7s 16 18 mph 1013.4mb 63f 64f
7:50pm 6ft 11s 7s 16 18 mph 1013.3mb 63f 64f
6:50pm 6ft 11s 7s 16 18 mph 1013.4mb 63f 64f
5:50pm 6ft 11s 7s 11 16 mph 1013.7mb 63f 64f
4:50pm 6ft 11s 7s 11 13 mph 1013.9mb 64f 64f
3:50pm 6ft 11s 7s 9 11 mph 1014.2mb 64f 65f
2:50pm 7ft 11s 8s 9 11 mph 1014.8mb 64f 64f
1:50pm 6.5ft 11s 8s 7 9 mph 1015.2mb 64f 64f
12:50pm 6ft 11s 8s 4 7 mph 1015.6mb 64f 64f
11:50am 7ft 11s 8s 7 9 mph 1015.8mb 63f 64f
10:50am 7.5ft 12s 8s 9 11 mph 1015.7mb 63f 63f
9:50am 6.5ft 11s 7s 9 11 mph 1015.4mb 63f 63f
8:50am 7ft 11s 7s 11 13 mph 1015.1mb 63f 63f
7:50am 6.5ft 11s 7s 11 13 mph 1015mb 62f 63f
6:50am 7ft 12s 7s 11 16 mph 1014.4mb 62f 63f
5:50am 7ft 13s 7s 11 13 mph 1014.2mb 63f 63f
4:50am 7.5ft 13s 8s 13 16 mph 1013.7mb 63f 63f
3:50am 7ft 11s 8s 11 13 mph 1014.1mb 63f 63f
2:50am 7ft 13s 8s 9 11 mph 1014.2mb 63f 63f
1:50am 7ft 14s 8s 11 13 mph 1014.4mb 63f 63f
12:50am 7ft 11s 7s 11 16 mph 1014.3mb 63f 63f
Tue 09/01 11:50pm 8ft 11s 7s 11 13 mph 1014.6mb 63f 64f
10:50pm 8ft 11s 7s 13 16 mph 1014.1mb 63f 64f
9:50pm 7.5ft 11s 7s 13 16 mph 1014.3mb 63f 63f
8:50pm 7.5ft 12s 7s 13 18 mph 1014.1mb 63f 64f
7:50pm 8ft 11s 7s 13 16 mph 1013.6mb 63f 63f
6:50pm 8ft 8s 7s 13 16 mph 1013.3mb 63f 64f
5:50pm 8ft 8s 7s 13 16 mph 1013mb 63f 63f
4:50pm 7.5ft 12s 7s 9 13 mph 1013.1mb 63f 64f
3:50pm 8.5ft 8s 7s 7 9 mph 1013.3mb 63f 64f
2:50pm 8ft 10s 7s 4 7 mph 1013.8mb 63f 63f
1:50pm 8ft 10s 8s 7 9 mph 1013.9mb 63f 63f
12:50pm 8ft 11s 8s 9 11 mph 1013.7mb 63f 63f
11:50am 7.5ft 11s 7s 9 11 mph 1014.1mb 63f 63f
10:50am 8ft 8s 7s 9 11 mph 1014.2mb 62f 63f
9:50am 7.5ft 11s 7s 7 9 mph 1013.9mb 62f 63f
8:50am 8ft 11s 7s 9 13 mph 1013.4mb 62f 63f
7:50am 8ft 8s 7s 9 13 mph 1013.2mb 62f 63f
6:50am 8ft 8s 7s 11 13 mph 1012.6mb 62f 63f
5:50am 8ft 8s 7s 9 11 mph 1012.3mb 62f 63f
4:50am 7.5ft 8s 7s 9 11 mph 1012mb 63f 63f
3:50am 8ft 8s 7s 11 13 mph 1012.2mb 63f 63f
2:50am 7ft 8s 7s 11 13 mph 1012mb 63f 63f
1:50am 8ft 12s 7s 13 16 mph 1012.3mb 63f 63f
12:50am 8ft 8s 7s 16 18 mph 1012.4mb 63f 63f
Mon 08/31 11:50pm 8ft 12s 7s 16 18 mph 1012.5mb 63f 63f
10:50pm 8ft 10s 6s 18 22 mph 1012.3mb 63f 63f
9:50pm 8ft 8s 6s 18 22 mph 1012.7mb 62f 63f
8:50pm 8.5ft 10s 6s 20 25 mph 1012.2mb 62f 63f
7:50pm 9ft 11s 7s 20 25 mph 1012mb 62f 63f
6:50pm 9.5ft 14s 7s 20 25 mph 1012.3mb 62f 63f
5:50pm 9ft 11s 7s 22 29 mph 1012.3mb 63f 63f
4:50pm 9ft 11s 7s 20 27 mph 1012.7mb 63f 63f
3:50pm 8.5ft 12s 7s 20 25 mph 1013mb 63f 63f
2:50pm 9ft 15s 7s 20 22 mph 1013.6mb 62f 63f
1:50pm 7.5ft 12s 7s 18 22 mph 1014.2mb 61f 63f
12:50pm 7.5ft 16s 7s 18 20 mph 1014.5mb 61f 63f
11:50am 6.5ft 16s 7s 16 18 mph 1014.9mb 61f 63f
10:50am 6ft 13s 6s 16 18 mph 1014.9mb 61f 63f
9:50am 5.5ft 16s 6s 16 20 mph 1014.5mb 61f 63f
8:50am 6ft 16s 6s 18 22 mph 1014.5mb 62f 63f
7:50am 6ft 16s 6s 18 22 mph 1014.3mb 62f 63f
6:50am 6ft 16s 6s 16 20 mph 1014mb 62f 63f
5:50am 7ft 16s 7s 16 20 mph 1013.9mb 61f 63f
4:50am 6ft 16s 6s 18 22 mph 1013.8mb 61f 63f
3:50am 6ft 16s 6s 16 20 mph 1014.1mb 61f 63f
2:50am 6ft 16s 6s 18 22 mph 1013.9mb 61f 64f
1:50am 6ft 16s 6s 18 22 mph 1014.3mb 61f 64f
12:50am 6ft 16s 6s 18 22 mph 1014.3mb 62f 64f
Sun 08/30 11:50pm 6ft 16s 6s 18 22 mph 1014.3mb 62f 64f
10:50pm 6ft 16s 6s 18 22 mph 1014.6mb 63f 65f
9:50pm 6ft 17s 7s 16 20 mph 1015mb 64f 65f
8:50pm 6ft 17s 7s 13 18 mph 1015.1mb 65f 65f
7:50pm 7ft 17s 7s 20 27 mph 1014.5mb 65f 65f
6:50pm 6.5ft 16s 6s 20 25 mph 1015.2mb 65f 65f
5:50pm 6ft 17s 6s 20 25 mph 1015.7mb 65f 65f
4:50pm 6ft 17s 6s 22 27 mph 1016.1mb 65f 65f
3:50pm 5ft 14s 6s 22 25 mph 1016.4mb 65f 64f
2:50pm 5ft 14s 6s 18 25 mph 1017mb 65f 64f
1:50pm 6ft 17s 8s 20 25 mph 1017.4mb 65f 65f
12:50pm 5.5ft 17s 7s 20 22 mph 1017.5mb 65f 64f
11:50am 5ft 14s 6s 18 20 mph 1017.9mb 65f 64f
10:50am 5.5ft 17s 7s 16 18 mph 1018.2mb 65f 64f
9:50am 5.5ft 14s 6s 16 18 mph 1017.9mb 65f 64f
8:50am 5.5ft 15s 6s 16 18 mph 1017.9mb 65f 64f
7:50am 6ft 19s 7s 16 20 mph 1017.6mb 65f 64f
6:50am 5ft 15s 6s 16 18 mph 1017mb 65f 65f
5:50am 5.5ft 14s 7s 16 20 mph 1016.4mb 65f 64f
4:50am 5ft 15s 6s 16 20 mph 1016.3mb 65f 65f